Time;durP1;ratioP1;P1;durP2;ratioP2;P2;SDS_P1;SDS_P2;PMS_P1;PMS_P2;Temp;Humidity;BMP_temperature;BMP_pressure;BME280_temperature;BME280_humidity;BME280_pressure;Samples;Min_cycle;Max_cycle;Signal;HPM_P1;HPM_P2
2022/09/29 00:00:53;;;;;;;20.75;10.73;;;;;;;5.55;100.00;99818.38;5136533;27;20130;-89
2022/09/29 00:03:22;;;;;;;21.38;10.82;;;;;;;5.52;100.00;99825.00;5136482;27;20026;-89
2022/09/29 00:05:52;;;;;;;20.25;10.85;;;;;;;5.49;100.00;99821.91;5136563;27;20027;-89
2022/09/29 00:08:27;;;;;;;15.18;10.85;;;;;;;5.51;100.00;99817.16;5136674;27;20065;-89
2022/09/29 00:10:52;;;;;;;18.25;10.65;;;;;;;5.45;100.00;99819.63;5136998;27;20091;-89
2022/09/29 00:13:21;;;;;;;16.08;10.30;;;;;;;5.43;100.00;99823.53;5136882;27;20466;-88
2022/09/29 00:15:57;;;;;;;18.17;10.68;;;;;;;5.42;100.00;99825.41;5136495;27;20054;-88
2022/09/29 00:18:23;;;;;;;19.73;10.90;;;;;;;5.40;100.00;99822.13;5136089;27;20023;-88
2022/09/29 00:21:05;;;;;;;17.90;10.85;;;;;;;5.39;100.00;99825.84;5119073;27;20505;-89
2022/09/29 00:23:32;;;;;;;20.85;11.00;;;;;;;5.39;100.00;99827.72;5136204;27;20027;-89
2022/09/29 00:26:06;;;;;;;19.40;10.83;;;;;;;5.39;100.00;99822.31;5135990;27;20026;-89
2022/09/29 00:28:33;;;;;;;18.27;10.65;;;;;;;5.35;100.00;99816.50;5135943;27;20019;-88
2022/09/29 00:31:05;;;;;;;18.25;11.57;;;;;;;5.34;100.00;99824.78;5135822;27;20027;-89
2022/09/29 00:33:33;;;;;;;19.90;10.80;;;;;;;5.30;100.00;99812.78;5135784;27;20089;-89
2022/09/29 00:36:12;;;;;;;17.38;11.07;;;;;;;5.29;100.00;99816.53;5137678;27;20176;-89
2022/09/29 00:38:39;;;;;;;15.97;11.07;;;;;;;5.29;100.00;99813.84;5136414;27;20027;-88
2022/09/29 00:41:06;;;;;;;17.95;11.25;;;;;;;5.25;100.00;99819.59;5137334;27;20038;-89
2022/09/29 00:43:46;;;;;;;20.27;12.05;;;;;;;5.23;100.00;99812.78;5136123;27;20114;-89
2022/09/29 00:46:13;;;;;;;19.00;11.27;;;;;;;5.25;100.00;99819.59;5135561;27;20030;-88
2022/09/29 00:48:40;;;;;;;19.58;12.90;;;;;;;5.28;100.00;99818.38;5135645;27;20054;-89
2022/09/29 00:51:06;;;;;;;17.57;11.17;;;;;;;5.25;100.00;99824.16;5118381;27;20023;-88
2022/09/29 00:53:32;;;;;;;19.52;11.50;;;;;;;5.22;100.00;99811.13;5136982;27;20031;-89
2022/09/29 00:56:04;;;;;;;18.17;12.45;;;;;;;5.22;100.00;99811.94;5135677;27;20027;-88
2022/09/29 00:58:39;;;;;;;20.27;12.02;;;;;;;5.24;100.00;99825.19;5136023;27;20023;-88
2022/09/29 01:01:05;;;;;;;20.17;12.43;;;;;;;5.21;100.00;99813.00;5135248;27;20084;-89
2022/09/29 01:03:45;;;;;;;18.60;11.57;;;;;;;5.21;100.00;99817.53;5134626;27;20027;-89
2022/09/29 01:06:26;;;;;;;17.92;11.70;;;;;;;5.19;100.00;99815.03;5135891;27;20023;-89
2022/09/29 01:08:58;;;;;;;19.65;12.73;;;;;;;5.17;100.00;99809.06;5135841;27;20023;-89
2022/09/29 01:11:24;;;;;;;17.70;11.77;;;;;;;5.14;100.00;99805.94;5135378;27;20467;-89
2022/09/29 01:13:51;;;;;;;18.93;12.30;;;;;;;5.08;100.00;99808.44;5135354;27;20092;-89
2022/09/29 01:16:17;;;;;;;18.10;11.43;;;;;;;5.03;100.00;99802.00;5135233;27;20050;-88
2022/09/29 01:18:44;;;;;;;18.98;11.45;;;;;;;5.04;100.00;99809.03;5136236;27;20064;-89
2022/09/29 01:21:40;;;;;;;21.67;12.15;;;;;;;5.06;100.00;99818.56;5135541;27;20027;-88
2022/09/29 01:24:39;;;;;;;19.67;12.15;;;;;;;5.04;100.00;99811.72;5136085;27;20039;-89
2022/09/29 01:27:21;;;;;;;19.40;11.68;;;;;;;5.03;100.00;99810.06;5135749;27;20451;-89
2022/09/29 01:29:55;;;;;;;18.95;12.02;;;;;;;5.04;100.00;99811.72;5135504;27;20053;-89
2022/09/29 01:32:59;;;;;;;20.92;12.38;;;;;;;4.98;100.00;99805.31;5135252;27;20046;-89
2022/09/29 01:36:02;;;;;;;23.27;11.77;;;;;;;5.03;100.00;99812.75;5135547;27;20051;-89
2022/09/29 01:38:41;;;;;;;17.77;12.02;;;;;;;5.02;100.00;99827.22;5134986;27;20114;-89
2022/09/29 01:41:20;;;;;;;22.40;12.73;;;;;;;4.97;100.00;99806.31;5135210;27;20031;-89
2022/09/29 01:44:04;;;;;;;21.35;12.40;;;;;;;4.98;100.00;99810.69;5135054;27;20034;-89
2022/09/29 01:46:43;;;;;;;18.98;12.43;;;;;;;4.94;100.00;99811.28;5134867;27;20023;-89
2022/09/29 01:49:10;;;;;;;18.08;11.57;;;;;;;4.94;100.00;99812.13;5135372;27;20035;-89
2022/09/29 01:51:53;;;;;;;21.38;11.85;;;;;;;4.97;100.00;99817.09;5134309;27;20390;-89
2022/09/29 01:54:24;;;;;;;17.17;11.98;;;;;;;4.90;100.00;99814.41;5134918;27;20031;-89
2022/09/29 01:56:55;;;;;;;21.02;12.00;;;;;;;4.89;100.00;99818.09;5134754;27;20030;-89
2022/09/29 01:59:26;;;;;;;20.23;12.00;;;;;;;4.88;100.00;99821.00;5136543;27;20114;-88
2022/09/29 02:01:59;;;;;;;20.63;12.80;;;;;;;4.84;100.00;99815.22;5138220;27;20041;-89
2022/09/29 02:04:35;;;;;;;19.20;12.05;;;;;;;4.80;100.00;99824.72;5156517;27;20045;-89
2022/09/29 02:07:10;;;;;;;18.83;11.32;;;;;;;4.74;100.00;99820.16;5138329;27;20489;-89
2022/09/29 02:09:41;;;;;;;18.58;11.55;;;;;;;4.68;100.00;99811.03;5138100;27;20030;-92
2022/09/29 02:12:14;;;;;;;21.00;11.98;;;;;;;4.69;100.00;99818.03;5137836;27;20026;-89
2022/09/29 02:14:52;;;;;;;18.95;11.20;;;;;;;4.65;100.00;99818.66;5137971;27;20034;-89
2022/09/29 02:17:28;;;;;;;23.88;11.95;;;;;;;4.61;100.00;99817.41;5137700;27;20098;-89
2022/09/29 02:19:54;;;;;;;25.30;11.65;;;;;;;4.59;100.00;99822.97;5121310;27;20462;-88
2022/09/29 02:22:20;;;;;;;21.40;12.07;;;;;;;4.57;100.00;99822.34;5120717;27;20041;-89
2022/09/29 02:24:53;;;;;;;18.65;11.68;;;;;;;4.55;100.00;99819.88;5156521;27;20408;-88
2022/09/29 02:27:20;;;;;;;25.27;12.32;;;;;;;4.60;100.00;99821.13;5137475;27;20051;-89
2022/09/29 02:29:49;;;;;;;22.15;12.85;;;;;;;4.57;100.00;99819.66;5137400;27;20023;-89
2022/09/29 02:32:14;;;;;;;22.65;12.65;;;;;;;4.54;100.00;99817.38;5137549;27;20079;-89
2022/09/29 02:34:45;;;;;;;19.35;12.27;;;;;;;4.51;100.00;99820.47;5136965;27;20019;-88
2022/09/29 02:37:11;;;;;;;21.10;12.48;;;;;;;4.52;100.00;99828.34;5137464;27;20037;-88
2022/09/29 02:39:49;;;;;;;24.63;12.97;;;;;;;4.46;100.00;99821.09;5155833;27;20105;-88
2022/09/29 02:42:49;;;;;;;19.80;12.60;;;;;;;4.47;100.00;99817.34;5137511;27;20126;-88
2022/09/29 02:45:51;;;;;;;21.08;12.85;;;;;;;4.45;100.00;99813.22;5137501;27;20105;-88
2022/09/29 02:48:52;;;;;;;24.90;12.52;;;;;;;4.41;100.00;99820.84;5137126;27;20025;-88
2022/09/29 02:51:37;;;;;;;22.17;12.60;;;;;;;4.39;100.00;99823.72;5137811;27;20026;-88
2022/09/29 02:54:17;;;;;;;20.98;12.38;;;;;;;4.37;100.00;99822.25;5137192;27;20019;-88
2022/09/29 02:56:52;;;;;;;20.65;12.43;;;;;;;4.34;100.00;99819.97;5136897;27;20046;-88
2022/09/29 03:00:08;;;;;;;21.42;12.52;;;;;;;4.32;100.00;99820.19;5137327;27;20423;-88
2022/09/29 03:02:36;;;;;;;19.45;12.15;;;;;;;4.30;100.00;99818.75;5124960;27;20042;-88
2022/09/29 03:05:08;;;;;;;21.40;12.73;;;;;;;4.30;100.00;99826.81;5137227;27;20078;-89
2022/09/29 03:07:36;;;;;;;21.38;12.25;;;;;;;4.29;100.00;99825.94;5137778;27;20023;-89
2022/09/29 03:10:01;;;;;;;22.70;13.65;;;;;;;4.33;100.00;99826.41;5137061;27;20034;-88
2022/09/29 03:12:27;;;;;;;28.60;13.73;;;;;;;4.32;100.00;99825.53;5155365;27;20470;-88
2022/09/29 03:14:55;;;;;;;21.03;12.63;;;;;;;4.30;100.00;99822.25;5137286;27;20027;-89
2022/09/29 03:17:23;;;;;;;23.88;13.10;;;;;;;4.31;100.00;99820.38;5136632;27;20026;-88
2022/09/29 03:19:48;;;;;;;20.83;12.80;;;;;;;4.31;100.00;99821.22;5136791;27;20106;-88
2022/09/29 03:22:14;;;;;;;22.33;13.20;;;;;;;4.26;100.00;99820.16;5135703;27;20068;-88
2022/09/29 03:24:40;;;;;;;22.63;13.18;;;;;;;4.25;100.00;99823.88;5136306;27;20023;-89
2022/09/29 03:27:08;;;;;;;23.17;13.10;;;;;;;4.23;100.00;99813.31;5136893;27;20042;-89
2022/09/29 03:29:34;;;;;;;21.75;13.00;;;;;;;4.21;100.00;99818.91;5140791;27;20022;-88
2022/09/29 03:32:00;;;;;;;19.85;12.52;;;;;;;4.20;100.00;99822.59;5140676;27;20025;-89
2022/09/29 03:34:28;;;;;;;22.43;13.33;;;;;;;4.18;100.00;99813.09;5140616;27;20118;-89
2022/09/29 03:36:53;;;;;;;23.05;13.43;;;;;;;4.21;100.00;99818.91;5140465;27;20352;-88
2022/09/29 03:39:21;;;;;;;24.77;13.85;;;;;;;4.28;100.00;99829.69;5140740;27;20475;-88
2022/09/29 03:41:46;;;;;;;19.20;12.57;;;;;;;4.24;100.00;99817.69;5141071;27;20050;-88
2022/09/29 03:44:14;;;;;;;22.70;13.93;;;;;;;4.26;100.00;99826.34;5140665;27;20484;-89
2022/09/29 03:46:43;;;;;;;22.83;13.93;;;;;;;4.22;100.00;99825.09;5140590;27;20048;-89
2022/09/29 03:49:14;;;;;;;22.90;13.18;;;;;;;4.21;100.00;99829.63;5159250;27;20117;-89
2022/09/29 03:51:40;;;;;;;20.17;12.93;;;;;;;4.20;100.00;99830.66;5140167;27;20035;-88
2022/09/29 03:54:07;;;;;;;23.95;12.93;;;;;;;4.17;100.00;99823.00;5139904;27;20062;-89
2022/09/29 03:56:36;;;;;;;21.08;12.77;;;;;;;4.13;100.00;99824.41;5140446;27;20023;-89
2022/09/29 03:59:08;;;;;;;23.00;12.70;;;;;;;4.10;100.00;99824.00;5140266;27;20022;-88
2022/09/29 04:01:41;;;;;;;21.30;12.30;;;;;;;4.12;100.00;99828.16;5136591;27;20193;-89
2022/09/29 04:04:13;;;;;;;22.27;13.48;;;;;;;4.10;100.00;99826.69;5138572;27;20038;-88
2022/09/29 04:06:39;;;;;;;24.40;13.43;;;;;;;4.07;100.00;99829.75;5136763;27;20027;-89
2022/09/29 04:09:10;;;;;;;21.87;12.80;;;;;;;4.07;100.00;99832.44;5136548;27;20041;-88
2022/09/29 04:11:36;;;;;;;22.23;13.00;;;;;;;4.02;100.00;99841.91;5120514;27;20432;-88
2022/09/29 04:14:05;;;;;;;24.20;12.95;;;;;;;4.01;100.00;99840.25;5136561;27;20491;-88
2022/09/29 04:16:30;;;;;;;17.42;11.82;;;;;;;4.00;100.00;99843.13;5136427;27;20031;-89
2022/09/29 04:18:56;;;;;;;23.23;13.03;;;;;;;3.96;100.00;99840.03;5136818;27;20382;-88
2022/09/29 04:21:21;;;;;;;20.50;13.13;;;;;;;3.96;100.00;99847.25;5136216;27;20027;-89
2022/09/29 04:23:48;;;;;;;22.00;12.57;;;;;;;3.96;100.00;99845.41;5136131;27;20269;-88
2022/09/29 04:26:19;;;;;;;20.45;13.07;;;;;;;3.94;100.00;99847.47;5136625;27;20122;-88
2022/09/29 04:28:45;;;;;;;20.42;12.48;;;;;;;3.94;100.00;99847.47;5119500;27;20023;-88
2022/09/29 04:31:10;;;;;;;24.10;12.43;;;;;;;3.96;100.00;99855.31;5136508;27;20023;-89
2022/09/29 04:33:38;;;;;;;19.67;12.75;;;;;;;3.93;100.00;99853.03;5136860;27;20076;-89
2022/09/29 04:36:04;;;;;;;20.35;12.93;;;;;;;3.94;100.00;99854.66;5136990;27;20031;-88
2022/09/29 04:38:30;;;;;;;20.35;12.68;;;;;;;3.89;100.00;99849.88;5134804;27;20023;-89
2022/09/29 04:40:56;;;;;;;21.80;13.10;;;;;;;3.89;100.00;99851.75;5137123;27;20027;-88
2022/09/29 04:43:27;;;;;;;22.20;13.25;;;;;;;3.90;100.00;99853.38;5136077;27;20034;-88
2022/09/29 04:46:05;;;;;;;21.40;13.02;;;;;;;3.91;100.00;99857.75;5136639;27;20027;-89
2022/09/29 04:48:36;;;;;;;21.33;12.85;;;;;;;3.89;100.00;99865.16;5137254;27;20030;-88
2022/09/29 04:51:10;;;;;;;22.13;12.82;;;;;;;3.87;100.00;99857.31;5119696;27;20117;-88
2022/09/29 04:53:38;;;;;;;23.83;12.82;;;;;;;3.89;100.00;99859.81;5135814;27;20034;-89
2022/09/29 04:56:06;;;;;;;22.52;13.10;;;;;;;3.82;100.00;99860.59;5136481;27;20028;-89
2022/09/29 04:58:36;;;;;;;21.15;12.38;;;;;;;3.81;100.00;99863.44;5135813;27;20027;-89
2022/09/29 05:01:13;;;;;;;21.80;12.70;;;;;;;3.77;100.00;99856.81;5118401;27;20051;-89
2022/09/29 05:03:44;;;;;;;22.77;13.43;;;;;;;3.78;100.00;99866.50;5135434;27;20031;-89
2022/09/29 05:06:12;;;;;;;22.17;13.20;;;;;;;3.80;100.00;99870.66;5135921;27;20031;-89
2022/09/29 05:08:38;;;;;;;23.77;13.88;;;;;;;3.81;100.00;99874.16;5119266;27;20035;-88
2022/09/29 05:11:06;;;;;;;23.97;13.67;;;;;;;3.82;100.00;99876.69;5135766;27;20371;-89
2022/09/29 05:13:32;;;;;;;23.67;13.38;;;;;;;3.81;100.00;99874.16;5135472;27;20066;-86
2022/09/29 05:16:00;;;;;;;26.40;13.40;;;;;;;3.79;100.00;99876.22;5135443;27;20058;-87
2022/09/29 05:18:31;;;;;;;22.53;14.33;;;;;;;3.78;100.00;99882.63;5135733;27;20409;-89
2022/09/29 05:21:05;;;;;;;27.45;14.52;;;;;;;3.79;100.00;99882.41;5119740;27;20027;-90
2022/09/29 05:23:34;;;;;;;25.25;15.13;;;;;;;3.83;100.00;99890.94;5136036;27;20127;-89
2022/09/29 05:26:08;;;;;;;22.85;14.68;;;;;;;3.85;100.00;99902.28;5135615;27;20470;-90
2022/09/29 05:28:39;;;;;;;25.17;14.65;;;;;;;3.79;100.00;99890.47;5118738;27;20032;-89
2022/09/29 05:31:07;;;;;;;23.40;14.03;;;;;;;3.80;100.00;99899.38;5135618;27;20033;-86
2022/09/29 05:33:36;;;;;;;27.60;14.52;;;;;;;3.76;100.00;99898.91;5135133;27;20062;-88
2022/09/29 05:36:06;;;;;;;27.02;15.50;;;;;;;3.78;100.00;99896.03;5134957;27;20441;-86
2022/09/29 05:38:34;;;;;;;28.70;16.92;;;;;;;3.76;100.00;99888.19;5135770;27;20522;-86
2022/09/29 05:41:07;;;;;;;28.35;14.50;;;;;;;3.78;100.00;99896.88;5134479;27;20031;-87
2022/09/29 05:43:32;;;;;;;29.03;15.60;;;;;;;3.77;100.00;99902.44;5136521;27;20027;-87
2022/09/29 05:46:02;;;;;;;24.15;14.13;;;;;;;3.79;100.00;99908.44;5134300;27;20462;-87
2022/09/29 05:48:31;;;;;;;24.88;14.90;;;;;;;3.80;100.00;99910.91;5134281;27;20027;-88
2022/09/29 05:50:58;;;;;;;25.75;15.00;;;;;;;3.83;100.00;99912.41;5133833;27;20023;-87
2022/09/29 05:53:25;;;;;;;30.75;16.88;;;;;;;3.85;100.00;99911.19;5134708;27;20100;-82
2022/09/29 05:55:51;;;;;;;32.08;15.57;;;;;;;3.86;100.00;99915.50;5135688;27;20027;-86
2022/09/29 05:58:17;;;;;;;25.80;14.75;;;;;;;3.88;100.00;99912.63;5133901;27;20037;-86
2022/09/29 06:00:42;;;;;;;26.83;15.07;;;;;;;3.88;100.00;99918.00;5133978;27;20051;-86
2022/09/29 06:03:08;;;;;;;27.70;15.63;;;;;;;3.93;100.00;99918.25;5134378;27;20023;-85
2022/09/29 06:05:39;;;;;;;34.80;16.10;;;;;;;3.92;100.00;99916.59;5134178;27;20744;-85
2022/09/29 06:08:05;;;;;;;31.77;16.70;;;;;;;3.95;100.00;99918.06;5135050;27;20475;-85
2022/09/29 06:10:31;;;;;;;28.33;15.97;;;;;;;3.98;100.00;99912.28;5133866;27;20038;-85
2022/09/29 06:13:02;;;;;;;31.65;16.42;;;;;;;3.96;100.00;99922.41;5116881;27;20115;-85
2022/09/29 06:15:29;;;;;;;31.42;16.05;;;;;;;3.98;100.00;99925.72;5117568;27;20434;-86
2022/09/29 06:17:59;;;;;;;31.67;16.70;;;;;;;4.03;100.00;99929.47;5116841;27;20046;-85
2022/09/29 06:20:25;;;;;;;32.63;17.00;;;;;;;4.04;100.00;99923.09;5135563;27;20038;-85
2022/09/29 06:22:55;;;;;;;29.85;17.10;;;;;;;4.09;100.00;99925.19;5133205;27;20039;-85
2022/09/29 06:25:21;;;;;;;30.23;17.60;;;;;;;4.15;100.00;99934.28;5133612;27;20045;-85
2022/09/29 06:27:47;;;;;;;29.27;16.10;;;;;;;4.18;100.00;99932.06;5133235;27;20055;-85
2022/09/29 06:30:12;;;;;;;31.17;16.30;;;;;;;4.19;100.00;99930.19;5116809;27;20035;-87
2022/09/29 06:32:39;;;;;;;32.50;16.93;;;;;;;4.23;100.00;99936.84;5133354;27;20570;-87
2022/09/29 06:37:55;;;;;;;30.90;16.80;;;;;;;4.34;100.00;99940.81;5134931;27;20058;-87
2022/09/29 06:40:22;;;;;;;29.52;16.15;;;;;;;4.39;100.00;99949.97;5134305;27;20116;-87
2022/09/29 06:42:48;;;;;;;30.77;16.75;;;;;;;4.41;100.00;99944.38;5133252;27;20149;-87
2022/09/29 06:45:14;;;;;;;29.27;16.40;;;;;;;4.49;100.00;99951.50;5116113;27;20112;-87
2022/09/29 06:47:39;;;;;;;32.15;17.13;;;;;;;4.54;100.00;99944.47;5134390;27;20027;-87
2022/09/29 06:50:09;;;;;;;30.73;16.87;;;;;;;4.62;100.00;99958.78;5133403;27;20035;-87
2022/09/29 06:52:35;;;;;;;36.15;17.33;;;;;;;4.67;100.00;99954.47;5133152;27;20047;-87
2022/09/29 06:55:00;;;;;;;28.70;16.83;;;;;;;4.74;100.00;99958.03;5133254;27;20479;-87
2022/09/29 06:57:26;;;;;;;35.22;18.42;;;;;;;4.79;100.00;99946.66;5133433;27;20276;-87
2022/09/29 06:59:51;;;;;;;33.27;17.30;;;;;;;4.84;100.00;99951.44;5132905;27;20051;-87
2022/09/29 07:02:17;;;;;;;33.00;18.00;;;;;;;4.94;100.00;99959.16;5133248;27;20114;-87
2022/09/29 07:04:43;;;;;;;35.75;18.10;;;;;;;4.97;100.00;99959.56;5133675;28;20428;-87
2022/09/29 07:07:08;;;;;;;31.47;17.37;;;;;;;5.06;100.00;99962.91;5116179;28;20039;-87
2022/09/29 07:09:33;;;;;;;33.45;18.13;;;;;;;5.09;100.00;99959.81;5133265;28;20079;-87
2022/09/29 07:11:59;;;;;;;31.55;17.45;;;;;;;5.17;100.00;99969.59;5099170;28;20027;-86
2022/09/29 07:14:24;;;;;;;32.93;17.73;;;;;;;5.18;100.00;99972.06;5133273;28;20031;-87
2022/09/29 07:16:53;;;;;;;33.70;17.87;;;;;;;5.24;100.00;99975.78;5132993;28;20027;-87
2022/09/29 07:19:22;;;;;;;32.80;16.88;;;;;;;5.29;100.00;99967.97;5098966;28;20491;-87
2022/09/29 07:21:51;;;;;;;29.83;16.52;;;;;;;5.35;100.00;99977.91;5116218;28;20027;-87
2022/09/29 07:24:16;;;;;;;30.92;16.80;;;;;;;5.42;100.00;99992.22;5134378;28;20058;-87
2022/09/29 07:26:42;;;;;;;31.00;17.70;;;;;;;5.45;100.00;99981.03;5133440;28;20032;-87
2022/09/29 07:29:08;;;;;;;32.25;17.00;;;;;;;5.51;100.00;99983.97;5133057;28;20027;-87
2022/09/29 07:31:33;;;;;;;29.83;16.97;;;;;;;5.55;100.00;99983.34;5116550;28;20035;-87
2022/09/29 07:33:59;;;;;;;25.83;15.33;;;;;;;5.66;100.00;99997.25;5132994;28;20096;-87
2022/09/29 07:36:24;;;;;;;31.52;16.75;;;;;;;5.75;100.00;99996.84;5132969;28;20016;-87
2022/09/29 07:38:50;;;;;;;34.40;17.27;;;;;;;5.81;100.00;99995.19;5116193;28;20039;-87
2022/09/29 07:41:20;;;;;;;33.33;16.00;;;;;;;5.85;100.00;99992.94;5132660;28;20079;-88
2022/09/29 07:43:46;;;;;;;29.23;16.75;;;;;;;5.93;100.00;100003.50;5116580;28;20035;-86
2022/09/29 07:46:12;;;;;;;28.85;16.60;;;;;;;6.00;100.00;100000.84;5134258;27;20125;-87
2022/09/29 07:48:38;;;;;;;29.77;16.80;;;;;;;6.07;100.00;99999.00;5132957;28;20023;-86
2022/09/29 07:51:06;;;;;;;28.67;16.17;;;;;;;6.18;100.00;100000.22;5132922;28;20023;-87
2022/09/29 07:53:35;;;;;;;28.42;15.82;;;;;;;6.24;100.00;100004.78;5132314;28;20079;-87
2022/09/29 07:56:03;;;;;;;30.88;16.65;;;;;;;6.33;100.00;100006.22;5134085;27;20066;-87
2022/09/29 07:58:29;;;;;;;29.45;16.33;;;;;;;6.38;100.00;100006.44;5132872;28;20043;-87
2022/09/29 08:00:55;;;;;;;29.75;16.45;;;;;;;6.44;100.00;100013.69;5132444;28;20051;-86
2022/09/29 08:03:20;;;;;;;27.13;15.30;;;;;;;6.56;100.00;100021.97;5133984;28;20451;-87
2022/09/29 08:05:45;;;;;;;28.07;16.17;;;;;;;6.60;100.00;100019.66;5133076;28;20035;-87
2022/09/29 08:08:11;;;;;;;27.90;14.83;;;;;;;6.67;100.00;100015.09;5116113;28;20038;-87
2022/09/29 08:10:36;;;;;;;26.33;15.40;;;;;;;6.73;100.00;100019.66;5132771;28;20416;-86
2022/09/29 08:13:02;;;;;;;26.60;14.70;;;;;;;6.83;100.00;100030.00;5132959;27;20140;-87
2022/09/29 08:15:27;;;;;;;26.37;14.83;;;;;;;6.89;100.00;100021.06;5137358;27;20459;-86
2022/09/29 08:17:54;;;;;;;27.33;15.03;;;;;;;6.97;100.00;100036.22;5136237;27;20470;-87
2022/09/29 08:20:21;;;;;;;25.88;15.02;;;;;;;7.07;100.00;100028.50;5136772;27;20019;-86
2022/09/29 08:22:49;;;;;;;31.08;14.75;;;;;;;7.09;100.00;100039.09;5119725;27;20045;-87
2022/09/29 08:25:16;;;;;;;23.95;13.30;;;;;;;7.07;100.00;100036.59;5138270;27;20455;-87
2022/09/29 08:27:41;;;;;;;22.75;13.45;;;;;;;7.04;100.00;100045.09;5119033;27;20049;-87
2022/09/29 08:30:09;;;;;;;21.63;13.40;;;;;;;7.00;100.00;100050.09;5136898;27;20035;-87
2022/09/29 08:32:35;;;;;;;22.27;13.30;;;;;;;6.98;100.00;100048.63;5118805;27;20101;-86
2022/09/29 08:35:00;;;;;;;18.70;12.07;;;;;;;6.98;100.00;100048.63;5136161;27;20031;-87
2022/09/29 08:37:26;;;;;;;23.67;12.90;;;;;;;6.98;100.00;100054.03;5135889;27;20140;-87
2022/09/29 08:39:51;;;;;;;21.80;13.13;;;;;;;7.01;100.00;100053.59;5135878;27;20031;-87
2022/09/29 08:42:43;;;;;;;19.60;12.38;;;;;;;7.09;100.00;100063.34;5135697;27;20027;-87
2022/09/29 08:45:18;;;;;;;19.20;12.20;;;;;;;7.11;100.00;100054.00;5135784;27;20042;-87
2022/09/29 08:47:48;;;;;;;21.40;12.88;;;;;;;7.22;100.00;100065.16;5136436;27;20031;-87
2022/09/29 08:50:22;;;;;;;23.75;13.60;;;;;;;7.30;100.00;100057.66;5136284;27;20092;-87
2022/09/29 08:52:53;;;;;;;21.48;12.80;;;;;;;7.42;100.00;100062.41;5135759;27;20488;-87
2022/09/29 08:55:18;;;;;;;19.95;11.90;;;;;;;7.51;100.00;100066.53;5135884;27;20034;-87
2022/09/29 08:57:52;;;;;;;21.30;12.10;;;;;;;7.63;100.00;100067.53;5135510;27;20027;-86
2022/09/29 09:00:19;;;;;;;19.52;12.35;;;;;;;7.78;100.00;100069.94;5135530;27;20055;-87
2022/09/29 09:03:10;;;;;;;22.55;12.75;;;;;;;7.98;100.00;100068.97;5135375;27;20130;-85
2022/09/29 09:05:57;;;;;;;21.13;12.30;;;;;;;8.24;100.00;100066.09;5137704;27;20039;-87
2022/09/29 09:08:33;;;;;;;19.00;11.85;;;;;;;8.57;100.00;100072.31;5135176;27;20027;-85
2022/09/29 09:11:37;;;;;;;20.52;12.10;;;;;;;8.85;100.00;100071.03;5134963;27;20070;-86
2022/09/29 09:14:21;;;;;;;17.65;11.85;;;;;;;9.16;100.00;100075.50;5063783;27;20063;-86
2022/09/29 09:17:15;;;;;;;21.42;12.05;;;;;;;9.56;100.00;100076.91;5135481;27;20031;-87
2022/09/29 09:20:14;;;;;;;21.87;11.30;;;;;;;9.96;100.00;100079.91;5136595;27;20023;-87
2022/09/29 09:23:05;;;;;;;16.77;10.63;;;;;;;10.24;100.00;100075.75;5135517;27;20058;-86
2022/09/29 09:25:37;;;;;;;16.75;9.50;;;;;;;10.42;98.84;100077.59;5134578;27;20031;-85
2022/09/29 09:28:28;;;;;;;13.20;9.50;;;;;;;10.71;99.18;100080.47;5135958;27;20031;-86
2022/09/29 09:30:59;;;;;;;18.52;9.73;;;;;;;10.75;96.57;100075.38;5135029;27;20114;-86
2022/09/29 09:33:51;;;;;;;13.97;9.17;;;;;;;10.78;98.82;100072.22;5135831;27;20099;-87
2022/09/29 09:36:29;;;;;;;16.55;8.98;;;;;;;10.80;97.88;100073.63;5103454;27;20036;-87
2022/09/29 09:39:01;;;;;;;13.20;8.98;;;;;;;10.90;97.46;100078.47;5135574;27;20431;-86
2022/09/29 09:41:29;;;;;;;15.05;8.77;;;;;;;10.95;96.05;100077.75;5134668;27;20414;-86
2022/09/29 09:44:04;;;;;;;13.13;7.68;;;;;;;10.99;95.18;100076.22;5134594;27;20035;-86
2022/09/29 09:46:41;;;;;;;9.50;6.70;;;;;;;10.97;92.99;100081.03;5135477;27;20091;-86
2022/09/29 09:49:19;;;;;;;9.80;6.38;;;;;;;10.88;91.53;100086.03;5134970;27;20022;-86
2022/09/29 09:51:58;;;;;;;7.60;5.53;;;;;;;10.80;91.72;100075.50;5134136;27;20050;-86
2022/09/29 09:54:31;;;;;;;9.40;6.28;;;;;;;10.81;91.94;100075.28;5134784;27;20083;-86
2022/09/29 09:57:05;;;;;;;9.70;5.70;;;;;;;10.82;92.06;100085.06;5134578;27;20394;-86
2022/09/29 10:00:00;;;;;;;9.53;5.60;;;;;;;10.82;91.90;100081.50;5134477;27;20034;-87
2022/09/29 10:02:30;;;;;;;8.80;4.60;;;;;;;10.81;89.88;100091.56;5137312;27;20026;-87
2022/09/29 10:04:55;;;;;;;11.05;5.00;;;;;;;10.83;89.65;100081.28;5137091;27;20026;-86
2022/09/29 10:07:27;;;;;;;12.50;5.10;;;;;;;10.88;89.55;100091.47;5155562;27;20031;-86
2022/09/29 10:09:54;;;;;;;5.57;4.45;;;;;;;10.95;88.32;100088.59;5137092;27;20034;-84
2022/09/29 10:12:22;;;;;;;5.65;3.70;;;;;;;10.96;86.39;100082.13;5136689;27;20542;-86
2022/09/29 10:15:11;;;;;;;5.90;3.90;;;;;;;11.01;87.53;100084.94;5138108;27;20027;-85
2022/09/29 10:17:42;;;;;;;8.07;3.60;;;;;;;11.14;86.73;100094.72;5137616;27;20027;-86
2022/09/29 10:20:08;;;;;;;4.03;3.30;;;;;;;11.26;85.69;100092.00;5138323;27;20029;-86
2022/09/29 10:22:35;;;;;;;4.20;3.13;;;;;;;11.37;86.02;100085.75;5119975;27;20030;-87
2022/09/29 10:25:19;;;;;;;5.47;3.30;;;;;;;11.57;85.35;100090.75;5137481;27;20039;-86
2022/09/29 10:27:51;;;;;;;3.67;2.65;;;;;;;11.75;83.55;100092.47;5137051;27;20027;-87
2022/09/29 10:30:37;;;;;;;1.55;1.17;;;;;;;11.84;78.44;100099.19;5137718;27;20362;-86
2022/09/29 10:33:16;;;;;;;2.73;2.00;;;;;;;12.05;81.13;100102.31;5121131;27;20027;-86
2022/09/29 10:35:44;;;;;;;8.32;3.00;;;;;;;12.30;81.30;100091.09;5136983;27;20034;-86
2022/09/29 10:38:23;;;;;;;5.70;2.90;;;;;;;12.55;81.02;100101.56;5136914;27;20038;-86
2022/09/29 10:41:02;;;;;;;4.28;2.90;;;;;;;12.64;78.49;100100.09;5137232;27;20052;-86
2022/09/29 10:43:38;;;;;;;4.95;3.17;;;;;;;12.85;77.93;100100.41;5137393;27;20034;-86
2022/09/29 10:46:05;;;;;;;7.20;3.80;;;;;;;12.96;77.04;100087.75;5136890;27;20027;-86
2022/09/29 10:48:32;;;;;;;5.80;3.47;;;;;;;13.13;75.83;100099.44;5136924;27;20033;-86
2022/09/29 10:51:02;;;;;;;6.65;3.33;;;;;;;13.29;76.04;100092.31;5120011;27;20039;-86
2022/09/29 10:53:37;;;;;;;3.78;3.25;;;;;;;13.75;76.93;100094.81;5155103;27;20382;-87
2022/09/29 10:56:17;;;;;;;4.60;3.15;;;;;;;14.23;75.65;100096.97;5137056;27;20027;-87
2022/09/29 10:58:53;;;;;;;6.10;3.13;;;;;;;14.53;72.98;100099.97;5155158;27;20060;-88
2022/09/29 11:01:20;;;;;;;4.53;2.70;;;;;;;14.95;68.51;100097.59;5136518;27;20054;-86
2022/09/29 11:03:49;;;;;;;6.30;3.25;;;;;;;16.46;65.09;100102.28;5137570;27;20035;-87
2022/09/29 11:06:18;;;;;;;4.70;2.50;;;;;;;19.51;56.47;100090.50;5136717;27;20039;-86
2022/09/29 11:09:00;;;;;;;3.70;2.40;;;;;;;23.27;56.20;100098.66;5136080;27;20062;-86
2022/09/29 11:11:32;;;;;;;3.60;2.80;;;;;;;26.79;43.55;100092.59;5136442;27;20466;-87
2022/09/29 11:13:58;;;;;;;5.07;2.55;;;;;;;29.47;33.77;100106.97;5136607;27;20022;-87
2022/09/29 11:16:41;;;;;;;3.88;3.00;;;;;;;31.19;34.08;100095.81;5136539;27;20071;-87
2022/09/29 11:19:12;;;;;;;3.35;3.05;;;;;;;32.86;27.22;100094.94;5137152;27;20031;-87
2022/09/29 11:21:51;;;;;;;3.42;2.83;;;;;;;34.02;24.81;100099.47;5137438;27;20432;-87
2022/09/29 11:24:44;;;;;;;3.47;2.97;;;;;;;35.73;29.02;100090.13;5136709;27;20027;-87
2022/09/29 11:27:31;;;;;;;3.95;2.95;;;;;;;36.84;26.52;100080.44;5154796;27;20030;-87
2022/09/29 11:30:14;;;;;;;4.47;2.95;;;;;;;36.96;27.66;100074.28;5136135;27;20071;-87
2022/09/29 11:33:04;;;;;;;3.00;2.80;;;;;;;37.86;25.98;100075.50;5136831;27;20134;-87
2022/09/29 11:36:07;;;;;;;3.88;2.97;;;;;;;36.70;27.19;100067.16;5125995;27;20038;-88
2022/09/29 11:38:33;;;;;;;4.83;2.90;;;;;;;37.31;19.75;100077.22;5155036;27;20412;-88
2022/09/29 11:41:33;;;;;;;3.30;3.00;;;;;;;38.94;24.01;100074.88;5136088;27;20535;-87